sensor_id;sensor_type;location;lat;lon;timestamp;P1;durP1;ratioP1;P2;durP2;ratioP2
28834;SDS011;15969;51.536;11.884;2022-12-05T00:02:20;103.17;;;48.00;;
28834;SDS011;15969;51.536;11.884;2022-12-05T00:04:46;110.30;;;46.30;;
28834;SDS011;15969;51.536;11.884;2022-12-05T00:07:12;109.00;;;46.53;;
28834;SDS011;15969;51.536;11.884;2022-12-05T00:09:37;96.37;;;45.57;;
28834;SDS011;15969;51.536;11.884;2022-12-05T00:12:03;99.57;;;44.73;;
28834;SDS011;15969;51.536;11.884;2022-12-05T00:14:29;100.27;;;45.90;;
28834;SDS011;15969;51.536;11.884;2022-12-05T00:16:55;100.07;;;44.10;;
28834;SDS011;15969;51.536;11.884;2022-12-05T00:19:20;92.83;;;45.33;;
28834;SDS011;15969;51.536;11.884;2022-12-05T00:21:46;99.83;;;43.97;;
28834;SDS011;15969;51.536;11.884;2022-12-05T00:24:13;85.43;;;40.17;;
28834;SDS011;15969;51.536;11.884;2022-12-05T00:26:40;88.43;;;43.90;;
28834;SDS011;15969;51.536;11.884;2022-12-05T00:29:07;86.30;;;40.90;;
28834;SDS011;15969;51.536;11.884;2022-12-05T00:31:33;78.90;;;39.43;;
28834;SDS011;15969;51.536;11.884;2022-12-05T00:33:59;72.47;;;39.20;;
28834;SDS011;15969;51.536;11.884;2022-12-05T00:36:27;76.33;;;40.23;;
28834;SDS011;15969;51.536;11.884;2022-12-05T00:38:57;76.13;;;38.23;;
28834;SDS011;15969;51.536;11.884;2022-12-05T00:41:25;72.90;;;38.67;;
28834;SDS011;15969;51.536;11.884;2022-12-05T00:43:53;66.20;;;37.40;;
28834;SDS011;15969;51.536;11.884;2022-12-05T00:46:22;64.23;;;35.97;;
28834;SDS011;15969;51.536;11.884;2022-12-05T00:48:54;67.47;;;36.47;;
28834;SDS011;15969;51.536;11.884;2022-12-05T00:51:23;68.40;;;35.17;;
28834;SDS011;15969;51.536;11.884;2022-12-05T00:53:58;61.07;;;33.67;;
28834;SDS011;15969;51.536;11.884;2022-12-05T00:56:26;64.33;;;34.20;;
28834;SDS011;15969;51.536;11.884;2022-12-05T00:58:54;61.37;;;33.23;;
28834;SDS011;15969;51.536;11.884;2022-12-05T01:01:22;67.13;;;34.53;;
28834;SDS011;15969;51.536;11.884;2022-12-05T01:03:55;60.67;;;33.50;;
28834;SDS011;15969;51.536;11.884;2022-12-05T01:06:22;63.97;;;34.93;;
28834;SDS011;15969;51.536;11.884;2022-12-05T01:08:49;59.97;;;32.47;;
28834;SDS011;15969;51.536;11.884;2022-12-05T01:11:17;55.63;;;31.83;;
28834;SDS011;15969;51.536;11.884;2022-12-05T01:13:44;59.47;;;33.97;;
28834;SDS011;15969;51.536;11.884;2022-12-05T01:16:12;57.83;;;32.63;;
28834;SDS011;15969;51.536;11.884;2022-12-05T01:18:47;55.30;;;33.47;;
28834;SDS011;15969;51.536;11.884;2022-12-05T01:21:13;60.80;;;32.27;;
28834;SDS011;15969;51.536;11.884;2022-12-05T01:23:38;55.13;;;32.40;;
28834;SDS011;15969;51.536;11.884;2022-12-05T01:26:08;54.30;;;31.13;;
28834;SDS011;15969;51.536;11.884;2022-12-05T01:28:36;53.03;;;29.50;;
28834;SDS011;15969;51.536;11.884;2022-12-05T01:31:04;48.83;;;27.97;;
28834;SDS011;15969;51.536;11.884;2022-12-05T01:33:33;48.63;;;29.17;;
28834;SDS011;15969;51.536;11.884;2022-12-05T01:35:59;47.23;;;27.67;;
28834;SDS011;15969;51.536;11.884;2022-12-05T01:38:26;46.13;;;26.63;;
28834;SDS011;15969;51.536;11.884;2022-12-05T01:41:02;46.33;;;28.70;;
28834;SDS011;15969;51.536;11.884;2022-12-05T01:43:30;47.97;;;27.37;;
28834;SDS011;15969;51.536;11.884;2022-12-05T01:45:56;48.40;;;27.60;;
28834;SDS011;15969;51.536;11.884;2022-12-05T01:48:29;48.13;;;27.30;;
28834;SDS011;15969;51.536;11.884;2022-12-05T01:50:58;42.37;;;25.67;;
28834;SDS011;15969;51.536;11.884;2022-12-05T01:53:25;44.00;;;26.50;;
28834;SDS011;15969;51.536;11.884;2022-12-05T01:55:52;45.37;;;25.73;;
28834;SDS011;15969;51.536;11.884;2022-12-05T01:58:19;46.73;;;26.13;;
28834;SDS011;15969;51.536;11.884;2022-12-05T02:00:46;46.20;;;27.17;;
28834;SDS011;15969;51.536;11.884;2022-12-05T02:03:14;39.93;;;25.30;;
28834;SDS011;15969;51.536;11.884;2022-12-05T02:05:43;42.67;;;25.47;;
28834;SDS011;15969;51.536;11.884;2022-12-05T02:08:13;38.30;;;23.93;;
28834;SDS011;15969;51.536;11.884;2022-12-05T02:10:43;39.63;;;25.47;;
28834;SDS011;15969;51.536;11.884;2022-12-05T02:19:30;39.67;;;24.87;;
28834;SDS011;15969;51.536;11.884;2022-12-05T02:25:32;39.70;;;24.90;;
28834;SDS011;15969;51.536;11.884;2022-12-05T02:31:34;38.63;;;23.40;;
28834;SDS011;15969;51.536;11.884;2022-12-05T02:39:44;39.30;;;23.23;;
28834;SDS011;15969;51.536;11.884;2022-12-05T02:45:04;38.90;;;24.57;;
28834;SDS011;15969;51.536;11.884;2022-12-05T02:47:36;38.37;;;24.57;;
28834;SDS011;15969;51.536;11.884;2022-12-05T02:50:09;35.03;;;22.63;;
28834;SDS011;15969;51.536;11.884;2022-12-05T02:52:38;35.10;;;21.90;;
28834;SDS011;15969;51.536;11.884;2022-12-05T02:55:06;31.40;;;22.13;;
28834;SDS011;15969;51.536;11.884;2022-12-05T02:57:33;31.63;;;20.73;;
28834;SDS011;15969;51.536;11.884;2022-12-05T03:00:00;29.90;;;20.63;;
28834;SDS011;15969;51.536;11.884;2022-12-05T03:02:30;30.47;;;20.10;;
28834;SDS011;15969;51.536;11.884;2022-12-05T03:05:01;32.70;;;21.03;;
28834;SDS011;15969;51.536;11.884;2022-12-05T03:07:51;28.33;;;18.97;;
28834;SDS011;15969;51.536;11.884;2022-12-05T03:10:21;26.87;;;18.43;;
28834;SDS011;15969;51.536;11.884;2022-12-05T03:12:52;28.83;;;19.50;;
28834;SDS011;15969;51.536;11.884;2022-12-05T03:15:24;28.60;;;18.70;;
28834;SDS011;15969;51.536;11.884;2022-12-05T03:18:00;24.03;;;17.03;;
28834;SDS011;15969;51.536;11.884;2022-12-05T03:20:47;25.27;;;18.77;;
28834;SDS011;15969;51.536;11.884;2022-12-05T03:23:36;27.23;;;18.40;;
28834;SDS011;15969;51.536;11.884;2022-12-05T03:31:54;24.17;;;16.20;;
28834;SDS011;15969;51.536;11.884;2022-12-05T03:34:36;25.20;;;17.87;;
28834;SDS011;15969;51.536;11.884;2022-12-05T03:37:24;25.93;;;17.33;;
28834;SDS011;15969;51.536;11.884;2022-12-05T03:40:02;21.60;;;16.23;;
28834;SDS011;15969;51.536;11.884;2022-12-05T03:42:46;22.30;;;15.23;;
28834;SDS011;15969;51.536;11.884;2022-12-05T03:45:22;24.37;;;15.67;;
28834;SDS011;15969;51.536;11.884;2022-12-05T03:47:58;22.00;;;15.30;;
28834;SDS011;15969;51.536;11.884;2022-12-05T03:51:02;24.37;;;16.73;;
28834;SDS011;15969;51.536;11.884;2022-12-05T03:53:33;24.50;;;16.23;;
28834;SDS011;15969;51.536;11.884;2022-12-05T03:56:18;23.93;;;15.53;;
28834;SDS011;15969;51.536;11.884;2022-12-05T03:58:51;23.43;;;15.33;;
28834;SDS011;15969;51.536;11.884;2022-12-05T04:01:23;25.00;;;16.87;;
28834;SDS011;15969;51.536;11.884;2022-12-05T04:03:54;25.97;;;16.60;;
28834;SDS011;15969;51.536;11.884;2022-12-05T04:06:25;29.00;;;17.23;;
28834;SDS011;15969;51.536;11.884;2022-12-05T04:08:57;27.60;;;16.33;;
28834;SDS011;15969;51.536;11.884;2022-12-05T04:11:32;27.97;;;17.37;;
28834;SDS011;15969;51.536;11.884;2022-12-05T04:14:06;27.27;;;17.47;;
28834;SDS011;15969;51.536;11.884;2022-12-05T04:16:40;28.10;;;17.00;;
28834;SDS011;15969;51.536;11.884;2022-12-05T04:22:23;27.37;;;16.50;;
28834;SDS011;15969;51.536;11.884;2022-12-05T04:24:50;28.87;;;16.27;;
28834;SDS011;15969;51.536;11.884;2022-12-05T04:27:39;28.53;;;15.60;;
28834;SDS011;15969;51.536;11.884;2022-12-05T04:30:22;26.80;;;16.07;;
28834;SDS011;15969;51.536;11.884;2022-12-05T04:35:38;22.80;;;14.27;;
28834;SDS011;15969;51.536;11.884;2022-12-05T04:40:56;20.20;;;13.60;;
28834;SDS011;15969;51.536;11.884;2022-12-05T04:43:25;23.87;;;13.47;;
28834;SDS011;15969;51.536;11.884;2022-12-05T04:45:55;25.33;;;14.00;;
28834;SDS011;15969;51.536;11.884;2022-12-05T04:48:24;24.17;;;13.60;;
28834;SDS011;15969;51.536;11.884;2022-12-05T04:50:52;23.97;;;13.97;;
28834;SDS011;15969;51.536;11.884;2022-12-05T04:53:20;21.17;;;13.50;;
28834;SDS011;15969;51.536;11.884;2022-12-05T04:55:50;22.90;;;13.47;;
28834;SDS011;15969;51.536;11.884;2022-12-05T04:58:23;20.60;;;12.93;;
28834;SDS011;15969;51.536;11.884;2022-12-05T05:01:11;22.63;;;13.10;;
28834;SDS011;15969;51.536;11.884;2022-12-05T05:06:25;20.43;;;14.20;;
28834;SDS011;15969;51.536;11.884;2022-12-05T05:08:53;23.17;;;14.20;;
28834;SDS011;15969;51.536;11.884;2022-12-05T05:11:25;23.93;;;13.97;;
28834;SDS011;15969;51.536;11.884;2022-12-05T05:13:56;20.63;;;12.70;;
28834;SDS011;15969;51.536;11.884;2022-12-05T05:16:23;27.70;;;13.53;;
28834;SDS011;15969;51.536;11.884;2022-12-05T05:18:50;21.87;;;13.13;;
28834;SDS011;15969;51.536;11.884;2022-12-05T05:21:18;23.17;;;12.93;;
28834;SDS011;15969;51.536;11.884;2022-12-05T05:23:51;20.20;;;13.17;;
28834;SDS011;15969;51.536;11.884;2022-12-05T05:26:17;21.40;;;14.07;;
28834;SDS011;15969;51.536;11.884;2022-12-05T05:28:44;21.53;;;13.07;;
28834;SDS011;15969;51.536;11.884;2022-12-05T05:31:11;19.03;;;12.07;;
28834;SDS011;15969;51.536;11.884;2022-12-05T05:33:37;19.57;;;12.60;;
28834;SDS011;15969;51.536;11.884;2022-12-05T05:36:04;22.23;;;12.23;;
28834;SDS011;15969;51.536;11.884;2022-12-05T05:38:39;20.57;;;12.47;;
28834;SDS011;15969;51.536;11.884;2022-12-05T05:41:17;19.43;;;12.23;;
28834;SDS011;15969;51.536;11.884;2022-12-05T05:43:52;21.23;;;13.03;;
28834;SDS011;15969;51.536;11.884;2022-12-05T05:46:19;21.40;;;11.83;;
28834;SDS011;15969;51.536;11.884;2022-12-05T05:48:48;18.33;;;11.87;;
28834;SDS011;15969;51.536;11.884;2022-12-05T05:51:14;19.07;;;11.60;;
28834;SDS011;15969;51.536;11.884;2022-12-05T05:53:41;22.53;;;11.77;;
28834;SDS011;15969;51.536;11.884;2022-12-05T05:56:08;20.67;;;12.40;;
28834;SDS011;15969;51.536;11.884;2022-12-05T05:58:39;20.60;;;11.50;;
28834;SDS011;15969;51.536;11.884;2022-12-05T06:01:16;21.60;;;11.60;;
28834;SDS011;15969;51.536;11.884;2022-12-05T06:03:47;20.00;;;11.30;;
28834;SDS011;15969;51.536;11.884;2022-12-05T06:06:14;17.33;;;11.57;;
28834;SDS011;15969;51.536;11.884;2022-12-05T06:08:41;16.73;;;10.97;;
28834;SDS011;15969;51.536;11.884;2022-12-05T06:11:09;19.53;;;11.53;;
28834;SDS011;15969;51.536;11.884;2022-12-05T06:13:39;20.23;;;11.60;;
28834;SDS011;15969;51.536;11.884;2022-12-05T06:16:05;16.00;;;11.20;;
28834;SDS011;15969;51.536;11.884;2022-12-05T06:18:33;18.23;;;11.20;;
28834;SDS011;15969;51.536;11.884;2022-12-05T06:20:59;17.13;;;10.87;;
28834;SDS011;15969;51.536;11.884;2022-12-05T06:23:25;16.50;;;11.10;;
28834;SDS011;15969;51.536;11.884;2022-12-05T06:25:52;16.60;;;10.63;;
28834;SDS011;15969;51.536;11.884;2022-12-05T06:28:22;16.20;;;10.47;;
28834;SDS011;15969;51.536;11.884;2022-12-05T06:30:50;17.43;;;11.63;;
28834;SDS011;15969;51.536;11.884;2022-12-05T06:33:16;17.30;;;10.77;;
28834;SDS011;15969;51.536;11.884;2022-12-05T06:35:43;21.07;;;11.40;;
28834;SDS011;15969;51.536;11.884;2022-12-05T06:38:09;17.77;;;10.63;;
28834;SDS011;15969;51.536;11.884;2022-12-05T06:40:38;14.87;;;10.50;;
28834;SDS011;15969;51.536;11.884;2022-12-05T06:43:06;17.47;;;11.00;;
28834;SDS011;15969;51.536;11.884;2022-12-05T06:45:31;19.83;;;11.40;;
28834;SDS011;15969;51.536;11.884;2022-12-05T06:47:57;19.37;;;10.73;;
28834;SDS011;15969;51.536;11.884;2022-12-05T06:50:23;18.73;;;10.27;;
28834;SDS011;15969;51.536;11.884;2022-12-05T06:52:49;21.50;;;11.27;;
28834;SDS011;15969;51.536;11.884;2022-12-05T06:55:15;16.17;;;10.03;;
28834;SDS011;15969;51.536;11.884;2022-12-05T06:57:41;16.40;;;10.57;;
28834;SDS011;15969;51.536;11.884;2022-12-05T07:00:07;17.60;;;10.17;;
28834;SDS011;15969;51.536;11.884;2022-12-05T07:02:52;18.23;;;9.93;;
28834;SDS011;15969;51.536;11.884;2022-12-05T07:05:18;19.17;;;10.90;;
28834;SDS011;15969;51.536;11.884;2022-12-05T07:07:44;21.30;;;11.13;;
28834;SDS011;15969;51.536;11.884;2022-12-05T07:10:10;17.27;;;10.10;;
28834;SDS011;15969;51.536;11.884;2022-12-05T07:12:35;16.37;;;10.33;;
28834;SDS011;15969;51.536;11.884;2022-12-05T07:15:01;17.37;;;10.87;;
28834;SDS011;15969;51.536;11.884;2022-12-05T07:17:28;17.57;;;10.13;;
28834;SDS011;15969;51.536;11.884;2022-12-05T07:19:54;16.53;;;10.43;;
28834;SDS011;15969;51.536;11.884;2022-12-05T07:22:20;15.47;;;9.97;;
28834;SDS011;15969;51.536;11.884;2022-12-05T07:24:47;16.20;;;10.03;;
28834;SDS011;15969;51.536;11.884;2022-12-05T07:27:15;16.57;;;9.83;;
28834;SDS011;15969;51.536;11.884;2022-12-05T07:29:41;18.73;;;10.87;;
28834;SDS011;15969;51.536;11.884;2022-12-05T07:32:06;15.83;;;9.97;;
28834;SDS011;15969;51.536;11.884;2022-12-05T07:34:32;19.27;;;11.20;;
28834;SDS011;15969;51.536;11.884;2022-12-05T07:36:58;18.33;;;10.23;;
28834;SDS011;15969;51.536;11.884;2022-12-05T07:39:24;14.97;;;10.63;;
28834;SDS011;15969;51.536;11.884;2022-12-05T07:41:50;16.87;;;11.13;;
28834;SDS011;15969;51.536;11.884;2022-12-05T07:44:16;20.20;;;10.87;;
28834;SDS011;15969;51.536;11.884;2022-12-05T07:46:42;17.73;;;11.27;;
28834;SDS011;15969;51.536;11.884;2022-12-05T07:49:08;17.90;;;10.17;;
28834;SDS011;15969;51.536;11.884;2022-12-05T07:51:34;18.90;;;10.47;;
28834;SDS011;15969;51.536;11.884;2022-12-05T07:54:00;20.80;;;10.73;;
28834;SDS011;15969;51.536;11.884;2022-12-05T07:56:25;17.17;;;10.17;;
28834;SDS011;15969;51.536;11.884;2022-12-05T07:58:51;17.67;;;11.00;;
28834;SDS011;15969;51.536;11.884;2022-12-05T08:01:19;19.50;;;11.13;;
28834;SDS011;15969;51.536;11.884;2022-12-05T08:03:54;16.57;;;10.60;;
28834;SDS011;15969;51.536;11.884;2022-12-05T08:06:24;18.20;;;10.97;;
28834;SDS011;15969;51.536;11.884;2022-12-05T08:08:53;18.97;;;11.70;;
28834;SDS011;15969;51.536;11.884;2022-12-05T08:11:30;18.60;;;10.57;;
28834;SDS011;15969;51.536;11.884;2022-12-05T08:13:59;18.77;;;11.10;;
28834;SDS011;15969;51.536;11.884;2022-12-05T08:16:27;18.87;;;10.73;;
28834;SDS011;15969;51.536;11.884;2022-12-05T08:19:01;19.70;;;11.10;;
28834;SDS011;15969;51.536;11.884;2022-12-05T08:21:30;21.03;;;11.20;;
28834;SDS011;15969;51.536;11.884;2022-12-05T08:23:56;17.10;;;10.13;;
28834;SDS011;15969;51.536;11.884;2022-12-05T08:26:26;20.50;;;11.23;;
28834;SDS011;15969;51.536;11.884;2022-12-05T08:29:18;18.27;;;10.73;;
28834;SDS011;15969;51.536;11.884;2022-12-05T08:31:47;17.63;;;11.53;;
28834;SDS011;15969;51.536;11.884;2022-12-05T08:34:15;20.70;;;11.90;;
28834;SDS011;15969;51.536;11.884;2022-12-05T08:36:44;21.13;;;11.77;;
28834;SDS011;15969;51.536;11.884;2022-12-05T08:39:11;19.00;;;11.93;;
28834;SDS011;15969;51.536;11.884;2022-12-05T08:41:44;20.20;;;12.10;;
28834;SDS011;15969;51.536;11.884;2022-12-05T08:44:12;15.67;;;10.60;;
28834;SDS011;15969;51.536;11.884;2022-12-05T08:46:40;19.40;;;11.17;;
28834;SDS011;15969;51.536;11.884;2022-12-05T08:49:06;18.93;;;11.57;;
28834;SDS011;15969;51.536;11.884;2022-12-05T08:51:32;22.10;;;12.23;;
28834;SDS011;15969;51.536;11.884;2022-12-05T08:54:00;23.00;;;12.17;;
28834;SDS011;15969;51.536;11.884;2022-12-05T08:56:27;20.23;;;11.27;;
28834;SDS011;15969;51.536;11.884;2022-12-05T08:58:54;19.77;;;10.93;;
28834;SDS011;15969;51.536;11.884;2022-12-05T09:01:20;21.27;;;10.27;;
28834;SDS011;15969;51.536;11.884;2022-12-05T09:03:46;17.23;;;10.27;;
28834;SDS011;15969;51.536;11.884;2022-12-05T09:06:14;17.70;;;10.73;;
28834;SDS011;15969;51.536;11.884;2022-12-05T09:08:43;18.27;;;10.20;;
28834;SDS011;15969;51.536;11.884;2022-12-05T09:11:13;20.00;;;11.17;;
28834;SDS011;15969;51.536;11.884;2022-12-05T09:13:39;16.40;;;10.60;;
28834;SDS011;15969;51.536;11.884;2022-12-05T09:18:39;19.83;;;10.83;;
28834;SDS011;15969;51.536;11.884;2022-12-05T09:21:07;14.03;;;9.70;;
28834;SDS011;15969;51.536;11.884;2022-12-05T09:23:38;16.83;;;9.83;;
28834;SDS011;15969;51.536;11.884;2022-12-05T09:26:04;15.77;;;10.20;;
28834;SDS011;15969;51.536;11.884;2022-12-05T09:28:32;15.43;;;9.50;;
28834;SDS011;15969;51.536;11.884;2022-12-05T09:30:59;16.73;;;9.97;;
28834;SDS011;15969;51.536;11.884;2022-12-05T09:33:28;14.53;;;9.03;;
28834;SDS011;15969;51.536;11.884;2022-12-05T09:35:55;16.50;;;9.60;;
28834;SDS011;15969;51.536;11.884;2022-12-05T09:38:21;15.73;;;10.00;;
28834;SDS011;15969;51.536;11.884;2022-12-05T09:40:53;14.80;;;10.60;;
28834;SDS011;15969;51.536;11.884;2022-12-05T09:43:33;15.50;;;10.03;;
28834;SDS011;15969;51.536;11.884;2022-12-05T09:46:16;13.77;;;9.97;;
28834;SDS011;15969;51.536;11.884;2022-12-05T09:48:54;14.43;;;9.83;;
28834;SDS011;15969;51.536;11.884;2022-12-05T09:51:22;15.83;;;10.33;;
28834;SDS011;15969;51.536;11.884;2022-12-05T09:53:49;14.53;;;9.80;;
28834;SDS011;15969;51.536;11.884;2022-12-05T09:56:31;16.43;;;10.40;;
28834;SDS011;15969;51.536;11.884;2022-12-05T09:58:57;17.63;;;10.93;;
28834;SDS011;15969;51.536;11.884;2022-12-05T10:01:36;16.93;;;11.03;;
28834;SDS011;15969;51.536;11.884;2022-12-05T10:07:20;18.63;;;10.90;;
28834;SDS011;15969;51.536;11.884;2022-12-05T10:13:13;19.23;;;10.73;;
28834;SDS011;15969;51.536;11.884;2022-12-05T10:15:51;18.37;;;10.53;;
28834;SDS011;15969;51.536;11.884;2022-12-05T10:18:26;18.60;;;10.77;;
28834;SDS011;15969;51.536;11.884;2022-12-05T10:26:59;20.40;;;11.60;;
28834;SDS011;15969;51.536;11.884;2022-12-05T10:29:32;17.90;;;11.93;;
28834;SDS011;15969;51.536;11.884;2022-12-05T10:34:48;19.17;;;10.73;;
28834;SDS011;15969;51.536;11.884;2022-12-05T10:37:21;18.33;;;10.70;;
28834;SDS011;15969;51.536;11.884;2022-12-05T10:39:48;20.60;;;11.43;;
28834;SDS011;15969;51.536;11.884;2022-12-05T10:42:16;19.07;;;11.93;;
28834;SDS011;15969;51.536;11.884;2022-12-05T10:44:54;17.33;;;11.13;;
28834;SDS011;15969;51.536;11.884;2022-12-05T10:47:23;17.77;;;10.77;;
28834;SDS011;15969;51.536;11.884;2022-12-05T10:49:49;17.57;;;10.93;;
28834;SDS011;15969;51.536;11.884;2022-12-05T10:52:15;18.43;;;10.87;;
28834;SDS011;15969;51.536;11.884;2022-12-05T10:54:48;16.07;;;10.50;;
28834;SDS011;15969;51.536;11.884;2022-12-05T10:57:25;16.90;;;10.13;;
28834;SDS011;15969;51.536;11.884;2022-12-05T10:59:54;14.47;;;10.47;;
28834;SDS011;15969;51.536;11.884;2022-12-05T11:02:22;17.37;;;10.90;;
28834;SDS011;15969;51.536;11.884;2022-12-05T11:04:54;20.10;;;11.17;;
28834;SDS011;15969;51.536;11.884;2022-12-05T11:08:08;21.13;;;11.33;;
28834;SDS011;15969;51.536;11.884;2022-12-05T11:13:00;15.20;;;11.00;;
28834;SDS011;15969;51.536;11.884;2022-12-05T11:15:39;18.60;;;11.07;;
28834;SDS011;15969;51.536;11.884;2022-12-05T11:18:17;19.57;;;11.23;;
28834;SDS011;15969;51.536;11.884;2022-12-05T11:20:51;17.40;;;10.17;;
28834;SDS011;15969;51.536;11.884;2022-12-05T11:23:25;15.67;;;9.83;;
28834;SDS011;15969;51.536;11.884;2022-12-05T11:25:54;22.60;;;10.70;;
28834;SDS011;15969;51.536;11.884;2022-12-05T11:28:23;18.40;;;10.30;;
28834;SDS011;15969;51.536;11.884;2022-12-05T11:30:57;18.10;;;10.23;;
28834;SDS011;15969;51.536;11.884;2022-12-05T11:33:27;16.87;;;10.63;;
28834;SDS011;15969;51.536;11.884;2022-12-05T11:36:05;15.17;;;10.30;;
28834;SDS011;15969;51.536;11.884;2022-12-05T11:38:42;17.13;;;10.30;;
28834;SDS011;15969;51.536;11.884;2022-12-05T11:50:17;17.57;;;10.03;;
28834;SDS011;15969;51.536;11.884;2022-12-05T11:56:25;20.70;;;11.03;;
28834;SDS011;15969;51.536;11.884;2022-12-05T11:59:07;17.93;;;11.67;;
28834;SDS011;15969;51.536;11.884;2022-12-05T12:02:22;17.93;;;11.03;;
28834;SDS011;15969;51.536;11.884;2022-12-05T12:05:23;20.10;;;11.60;;
28834;SDS011;15969;51.536;11.884;2022-12-05T12:08:06;21.87;;;13.30;;
28834;SDS011;15969;51.536;11.884;2022-12-05T12:19:54;23.77;;;13.90;;
28834;SDS011;15969;51.536;11.884;2022-12-05T12:22:55;23.03;;;13.43;;
28834;SDS011;15969;51.536;11.884;2022-12-05T12:26:09;22.27;;;13.70;;
28834;SDS011;15969;51.536;11.884;2022-12-05T12:36:53;25.87;;;15.03;;
28834;SDS011;15969;51.536;11.884;2022-12-05T12:39:50;35.73;;;18.00;;
28834;SDS011;15969;51.536;11.884;2022-12-05T12:42:23;27.50;;;18.50;;
28834;SDS011;15969;51.536;11.884;2022-12-05T12:51:02;23.03;;;14.63;;
28834;SDS011;15969;51.536;11.884;2022-12-05T12:56:33;22.97;;;13.13;;
28834;SDS011;15969;51.536;11.884;2022-12-05T13:02:17;17.50;;;12.33;;
28834;SDS011;15969;51.536;11.884;2022-12-05T13:05:00;19.03;;;12.53;;
28834;SDS011;15969;51.536;11.884;2022-12-05T13:07:35;21.30;;;13.30;;
28834;SDS011;15969;51.536;11.884;2022-12-05T13:10:13;19.47;;;13.23;;
28834;SDS011;15969;51.536;11.884;2022-12-05T13:12:51;16.10;;;11.87;;
28834;SDS011;15969;51.536;11.884;2022-12-05T13:15:22;15.50;;;11.20;;
28834;SDS011;15969;51.536;11.884;2022-12-05T13:18:05;14.67;;;10.10;;
28834;SDS011;15969;51.536;11.884;2022-12-05T13:20:38;17.17;;;10.83;;
28834;SDS011;15969;51.536;11.884;2022-12-05T13:23:05;16.80;;;10.97;;
28834;SDS011;15969;51.536;11.884;2022-12-05T13:25:33;16.77;;;10.93;;
28834;SDS011;15969;51.536;11.884;2022-12-05T13:28:04;17.07;;;11.13;;
28834;SDS011;15969;51.536;11.884;2022-12-05T13:30:32;17.37;;;10.80;;
28834;SDS011;15969;51.536;11.884;2022-12-05T13:33:19;18.93;;;11.33;;
28834;SDS011;15969;51.536;11.884;2022-12-05T13:35:56;18.83;;;12.40;;
28834;SDS011;15969;51.536;11.884;2022-12-05T13:38:53;17.53;;;12.33;;
28834;SDS011;15969;51.536;11.884;2022-12-05T13:41:53;17.13;;;11.97;;
28834;SDS011;15969;51.536;11.884;2022-12-05T13:44:40;16.03;;;11.97;;
28834;SDS011;15969;51.536;11.884;2022-12-05T13:50:17;17.67;;;12.90;;
28834;SDS011;15969;51.536;11.884;2022-12-05T13:53:21;17.83;;;13.33;;
28834;SDS011;15969;51.536;11.884;2022-12-05T13:58:52;16.90;;;13.37;;
28834;SDS011;15969;51.536;11.884;2022-12-05T14:12:44;17.20;;;13.30;;
28834;SDS011;15969;51.536;11.884;2022-12-05T14:17:21;16.63;;;13.43;;
28834;SDS011;15969;51.536;11.884;2022-12-05T14:25:12;17.10;;;13.70;;
28834;SDS011;15969;51.536;11.884;2022-12-05T14:28:20;16.97;;;12.87;;
28834;SDS011;15969;51.536;11.884;2022-12-05T14:34:35;15.97;;;13.10;;
28834;SDS011;15969;51.536;11.884;2022-12-05T14:39:46;18.70;;;15.63;;
28834;SDS011;15969;51.536;11.884;2022-12-05T14:47:58;17.30;;;13.33;;
28834;SDS011;15969;51.536;11.884;2022-12-05T14:50:41;15.97;;;13.00;;
28834;SDS011;15969;51.536;11.884;2022-12-05T14:56:00;18.20;;;14.20;;
28834;SDS011;15969;51.536;11.884;2022-12-05T14:58:52;16.30;;;13.97;;
28834;SDS011;15969;51.536;11.884;2022-12-05T15:01:48;14.70;;;12.77;;
28834;SDS011;15969;51.536;11.884;2022-12-05T15:07:09;18.77;;;14.23;;
28834;SDS011;15969;51.536;11.884;2022-12-05T15:12:26;16.93;;;13.90;;
28834;SDS011;15969;51.536;11.884;2022-12-05T15:15:14;16.03;;;13.17;;
28834;SDS011;15969;51.536;11.884;2022-12-05T15:18:02;18.73;;;14.53;;
28834;SDS011;15969;51.536;11.884;2022-12-05T15:21:02;16.23;;;14.00;;
28834;SDS011;15969;51.536;11.884;2022-12-05T15:26:36;15.43;;;13.20;;
28834;SDS011;15969;51.536;11.884;2022-12-05T15:29:06;15.97;;;13.47;;
28834;SDS011;15969;51.536;11.884;2022-12-05T15:31:37;18.07;;;15.37;;
28834;SDS011;15969;51.536;11.884;2022-12-05T15:37:15;17.07;;;13.97;;
28834;SDS011;15969;51.536;11.884;2022-12-05T15:40:30;17.87;;;14.83;;
28834;SDS011;15969;51.536;11.884;2022-12-05T15:42:43;15.57;;;13.00;;
28834;SDS011;15969;51.536;11.884;2022-12-05T15:48:21;15.67;;;12.70;;
28834;SDS011;15969;51.536;11.884;2022-12-05T15:50:40;16.53;;;12.90;;
28834;SDS011;15969;51.536;11.884;2022-12-05T15:53:15;17.20;;;13.47;;
28834;SDS011;15969;51.536;11.884;2022-12-05T15:55:54;15.30;;;12.90;;
28834;SDS011;15969;51.536;11.884;2022-12-05T16:06:28;21.97;;;15.37;;
28834;SDS011;15969;51.536;11.884;2022-12-05T16:09:05;20.67;;;15.23;;
28834;SDS011;15969;51.536;11.884;2022-12-05T16:11:37;21.33;;;16.63;;
28834;SDS011;15969;51.536;11.884;2022-12-05T16:14:03;19.77;;;17.07;;
28834;SDS011;15969;51.536;11.884;2022-12-05T16:16:31;20.43;;;15.73;;
28834;SDS011;15969;51.536;11.884;2022-12-05T16:19:05;19.93;;;14.43;;
28834;SDS011;15969;51.536;11.884;2022-12-05T16:21:41;16.43;;;13.67;;
28834;SDS011;15969;51.536;11.884;2022-12-05T16:24:17;16.57;;;14.03;;
28834;SDS011;15969;51.536;11.884;2022-12-05T16:27:02;19.57;;;16.07;;
28834;SDS011;15969;51.536;11.884;2022-12-05T16:29:38;22.57;;;17.83;;
28834;SDS011;15969;51.536;11.884;2022-12-05T16:32:23;17.27;;;13.87;;
28834;SDS011;15969;51.536;11.884;2022-12-05T16:34:49;17.27;;;13.20;;
28834;SDS011;15969;51.536;11.884;2022-12-05T16:37:16;16.70;;;14.20;;
28834;SDS011;15969;51.536;11.884;2022-12-05T16:39:48;15.63;;;13.57;;
28834;SDS011;15969;51.536;11.884;2022-12-05T16:42:22;16.13;;;13.57;;
28834;SDS011;15969;51.536;11.884;2022-12-05T16:44:57;16.97;;;14.00;;
28834;SDS011;15969;51.536;11.884;2022-12-05T16:52:59;21.20;;;15.67;;
28834;SDS011;15969;51.536;11.884;2022-12-05T16:55:37;19.67;;;15.57;;
28834;SDS011;15969;51.536;11.884;2022-12-05T16:58:04;19.20;;;15.20;;
28834;SDS011;15969;51.536;11.884;2022-12-05T17:00:30;17.83;;;14.97;;
28834;SDS011;15969;51.536;11.884;2022-12-05T17:02:57;21.57;;;16.93;;
28834;SDS011;15969;51.536;11.884;2022-12-05T17:05:23;25.47;;;19.57;;
28834;SDS011;15969;51.536;11.884;2022-12-05T17:07:49;23.90;;;18.67;;
28834;SDS011;15969;51.536;11.884;2022-12-05T17:10:16;22.33;;;18.00;;
28834;SDS011;15969;51.536;11.884;2022-12-05T17:12:43;21.97;;;17.33;;
28834;SDS011;15969;51.536;11.884;2022-12-05T17:15:18;20.30;;;16.80;;
28834;SDS011;15969;51.536;11.884;2022-12-05T17:17:45;21.90;;;17.77;;
28834;SDS011;15969;51.536;11.884;2022-12-05T17:20:11;20.73;;;16.73;;
28834;SDS011;15969;51.536;11.884;2022-12-05T17:22:37;21.80;;;16.37;;
28834;SDS011;15969;51.536;11.884;2022-12-05T17:25:26;23.83;;;17.77;;
28834;SDS011;15969;51.536;11.884;2022-12-05T17:27:56;20.87;;;16.97;;